Stary Oskol, Russia
Current Conditions -  °F | °C
As of 9:00 PM on Thursday 30 Oct 2014 (Local Time) from UUOO Reporting Station
Haze Haze  
Wind Chill: 39°   Ceiling: 10000
Heat Index: 39°   Visibility: 2.4mi
Dew Point: 27°   Wind: 0mph
Humidity: 61%   Direction: NA
Pressure: 30.21"   Gusts: NA
Location:  51.3°N, 37.88°E
Report Text: UUOO 301800Z 00000MPS 3900 HZ BKN100 04/M03 Q1023 NOSIG RMK30090070
Loading
Personal Weather Stations






























Interactive Weather Map
Tropical Storm Tracking
New forecast layout! Learn more

10-Day Weather Forecast

Advertisements
Track Severe Weather on mobile